createdAt,value
2019-02-26T00:03:35.248Z,38.00
2019-02-26T00:08:41.165Z,35.23
2019-02-26T00:13:48.621Z,58.97
2019-02-26T00:18:56.231Z,37.47
2019-02-26T00:24:05.043Z,38.77
2019-02-26T00:29:12.025Z,35.97
2019-02-26T00:34:18.703Z,35.23
2019-02-26T00:39:25.109Z,37.43
2019-02-26T00:44:32.721Z,37.50
2019-02-26T00:49:39.145Z,36.90
2019-02-26T00:54:44.973Z,33.33
2019-02-26T00:59:50.939Z,34.00
2019-02-26T01:04:56.532Z,36.67
2019-02-26T01:10:02.320Z,37.07
2019-02-26T01:15:22.829Z,38.17
2019-02-26T01:20:30.237Z,34.53
2019-02-26T01:25:38.273Z,35.57
2019-02-26T01:30:43.359Z,36.77
2019-02-26T01:35:50.300Z,35.87
2019-02-26T01:40:56.673Z,34.93
2019-02-26T01:46:02.768Z,39.33
2019-02-26T01:51:08.850Z,39.97
2019-02-26T01:56:14.557Z,38.07
2019-02-26T02:01:23.867Z,45.33
2019-02-26T02:06:32.540Z,38.23
2019-02-26T02:11:40.601Z,41.13
2019-02-26T02:16:46.025Z,37.57
2019-02-26T02:21:53.801Z,40.97
2019-02-26T02:27:00.292Z,43.10
2019-02-26T02:32:07.719Z,41.57
2019-02-26T02:37:17.881Z,37.93
2019-02-26T02:42:24.486Z,46.80
2019-02-26T02:47:33.194Z,43.87
2019-02-26T02:52:37.996Z,46.30
2019-02-26T02:57:48.764Z,42.73
2019-02-26T03:02:53.024Z,47.70
2019-02-26T03:07:59.719Z,44.03
2019-02-26T03:13:05.397Z,48.03
2019-02-26T03:18:12.514Z,48.97
2019-02-26T03:23:20.187Z,49.17
2019-02-26T03:28:26.077Z,48.77
2019-02-26T03:33:32.100Z,47.83
2019-02-26T03:38:37.659Z,47.30
2019-02-26T03:43:43.431Z,48.20
2019-02-26T03:48:49.446Z,52.33
2019-02-26T03:53:55.065Z,51.27
2019-02-26T03:59:04.005Z,45.70
2019-02-26T04:04:08.417Z,51.63
2019-02-26T04:09:16.534Z,51.13
2019-02-26T04:14:22.907Z,49.67
2019-02-26T04:19:28.993Z,57.33
2019-02-26T04:24:38.106Z,52.73
2019-02-26T04:29:46.909Z,56.97
2019-02-26T04:34:56.942Z,54.00
2019-02-26T04:40:11.048Z,56.30
2019-02-26T04:45:35.373Z,56.63
2019-02-26T04:50:44.603Z,56.37
2019-02-26T04:55:50.044Z,64.67
2019-02-26T05:00:56.058Z,55.07
2019-02-26T05:06:07.369Z,59.07
2019-02-26T05:11:14.723Z,59.97
2019-02-26T05:16:18.217Z,49.97
2019-02-26T05:21:27.057Z,59.40
2019-02-26T05:26:32.777Z,61.77
2019-02-26T05:31:40.242Z,54.13
2019-02-26T05:36:46.385Z,54.17
2019-02-26T05:41:54.553Z,57.27
2019-02-26T05:47:01.593Z,59.33
2019-02-26T05:52:07.350Z,59.27
2019-02-26T05:57:25.964Z,52.20
2019-02-26T06:02:24.424Z,60.43
2019-02-26T06:07:35.529Z,59.83
2019-02-26T06:12:41.479Z,62.43
2019-02-26T06:17:48.245Z,56.83
2019-02-26T06:22:54.321Z,64.17
2019-02-26T06:28:04.488Z,64.23
2019-02-26T06:33:09.740Z,59.67
2019-02-26T06:38:16.159Z,64.63
2019-02-26T06:43:21.720Z,66.53
2019-02-26T06:48:29.635Z,70.30
2019-02-26T06:53:35.352Z,65.67
2019-02-26T06:58:43.251Z,66.67
2019-02-26T07:03:50.230Z,67.20
2019-02-26T07:08:55.780Z,68.07
2019-02-26T07:14:03.646Z,72.60
2019-02-26T07:19:11.540Z,68.33
2019-02-26T07:24:18.112Z,68.73
2019-02-26T07:29:24.069Z,67.07
2019-02-26T07:34:30.402Z,69.80
2019-02-26T07:39:36.247Z,71.43
2019-02-26T07:44:42.297Z,69.30
2019-02-26T07:49:49.168Z,73.00
2019-02-26T07:54:55.376Z,72.80
2019-02-26T08:00:02.289Z,70.37
2019-02-26T08:05:11.026Z,75.17
2019-02-26T08:10:19.543Z,69.40
2019-02-26T08:15:27.857Z,78.17
2019-02-26T08:20:35.660Z,77.23
2019-02-26T08:25:42.201Z,74.10
2019-02-26T08:30:49.911Z,83.40
2019-02-26T08:35:57.625Z,73.23
2019-02-26T08:41:04.329Z,77.90
2019-02-26T08:46:12.208Z,80.43
2019-02-26T08:51:21.521Z,69.83
2019-02-26T08:56:28.192Z,77.60
2019-02-26T09:01:33.826Z,77.13
2019-02-26T09:06:41.724Z,75.70
2019-02-26T09:11:47.716Z,84.07
2019-02-26T09:16:54.962Z,76.83
2019-02-26T09:22:01.452Z,78.30
2019-02-26T09:27:07.695Z,78.83
2019-02-26T09:32:16.068Z,75.57
2019-02-26T09:37:21.847Z,76.67
2019-02-26T09:42:30.031Z,77.47
2019-02-26T09:47:35.943Z,91.40
2019-02-26T09:52:41.666Z,77.23
2019-02-26T09:57:49.197Z,85.67
2019-02-26T10:02:55.027Z,87.17
2019-02-26T10:08:04.793Z,84.90
2019-02-26T10:13:08.146Z,85.57
2019-02-26T10:18:13.765Z,81.80
2019-02-26T10:23:21.771Z,86.97
2019-02-26T10:28:27.687Z,82.93
2019-02-26T10:33:37.789Z,81.70
2019-02-26T10:38:43.031Z,87.10
2019-02-26T10:43:48.834Z,90.30
2019-02-26T10:48:55.098Z,87.17
2019-02-26T10:54:05.079Z,85.37
2019-02-26T10:59:13.145Z,94.47
2019-02-26T11:04:19.963Z,86.93
2019-02-26T11:09:29.270Z,83.30
2019-02-26T11:14:36.057Z,87.67
2019-02-26T11:19:41.924Z,80.17
2019-02-26T11:24:48.523Z,87.40
2019-02-26T11:29:56.968Z,81.17
2019-02-26T11:35:02.834Z,85.62
2019-02-26T11:40:13.556Z,82.23
2019-02-26T11:45:24.080Z,83.23
2019-02-26T11:50:29.732Z,81.40
2019-02-26T11:55:37.481Z,78.37
2019-02-26T12:00:47.638Z,80.93
2019-02-26T12:05:54.180Z,82.13
2019-02-26T12:11:03.801Z,74.17
2019-02-26T12:16:09.399Z,75.63
2019-02-26T12:21:14.986Z,83.60
2019-02-26T12:26:22.197Z,81.67
2019-02-26T12:31:31.789Z,77.00
2019-02-26T12:36:38.126Z,77.77
2019-02-26T12:41:45.309Z,76.13
2019-02-26T12:46:53.627Z,79.03
2019-02-26T12:51:59.949Z,80.80
2019-02-26T12:57:06.615Z,74.97
2019-02-26T13:02:16.720Z,75.97
2019-02-26T13:07:20.972Z,72.07
2019-02-26T13:12:29.666Z,80.97
2019-02-26T13:17:34.895Z,78.40
2019-02-26T13:22:45.788Z,82.93
2019-02-26T13:27:51.013Z,83.37
2019-02-26T13:33:00.737Z,88.17
2019-02-26T13:38:05.737Z,83.73
2019-02-26T13:43:11.548Z,79.67
2019-02-26T13:48:20.185Z,88.03
2019-02-26T13:53:25.967Z,83.43
2019-02-26T13:58:32.328Z,75.13
2019-02-26T14:03:39.872Z,84.83
2019-02-26T14:08:46.344Z,76.80
2019-02-26T14:13:52.838Z,71.90
2019-02-26T14:18:58.634Z,78.27
2019-02-26T14:24:04.786Z,75.20
2019-02-26T14:29:10.702Z,74.30
2019-02-26T14:34:16.316Z,73.30
2019-02-26T14:39:23.655Z,76.87
2019-02-26T14:44:30.856Z,70.13
2019-02-26T14:49:37.844Z,71.80
2019-02-26T14:54:44.657Z,77.13
2019-02-26T14:59:50.811Z,75.23
2019-02-26T15:04:58.108Z,73.03
2019-02-26T15:10:07.748Z,80.03
2019-02-26T15:15:16.480Z,80.20
2019-02-26T15:20:23.911Z,79.07
2019-02-26T15:25:33.736Z,77.07
2019-02-26T15:30:40.073Z,78.63
2019-02-26T15:35:47.227Z,77.97
2019-02-26T15:40:54.847Z,76.17
2019-02-26T15:46:01.952Z,78.30
2019-02-26T15:51:14.346Z,77.47
2019-02-26T15:56:15.856Z,77.67
2019-02-26T16:01:23.909Z,75.87
2019-02-26T16:06:30.490Z,80.67
2019-02-26T16:11:37.874Z,88.00
2019-02-26T16:16:44.575Z,80.43
2019-02-26T16:21:50.264Z,81.50
2019-02-26T16:26:56.585Z,77.30
2019-02-26T16:32:04.999Z,76.20
2019-02-26T16:37:13.733Z,80.07
2019-02-26T16:42:19.805Z,88.67
2019-02-26T16:47:26.414Z,76.90
2019-02-26T16:52:34.678Z,80.23
2019-02-26T16:57:40.876Z,79.00
2019-02-26T17:02:48.573Z,89.63
2019-02-26T17:07:56.136Z,85.93
2019-02-26T17:13:05.918Z,86.47
2019-02-26T17:18:12.586Z,85.10
2019-02-26T17:23:18.282Z,87.17
2019-02-26T17:28:24.113Z,85.17
2019-02-26T17:33:30.010Z,87.10
2019-02-26T17:38:35.785Z,85.43
2019-02-26T17:43:41.561Z,85.27
2019-02-26T17:48:47.622Z,76.73
2019-02-26T17:53:53.183Z,86.93
2019-02-26T17:59:00.022Z,91.23
2019-02-26T18:04:07.179Z,91.07
2019-02-26T18:09:13.086Z,92.77
2019-02-26T18:14:19.065Z,90.13
2019-02-26T18:19:25.070Z,93.23
2019-02-26T18:24:30.933Z,91.77
2019-02-26T18:29:38.518Z,84.07
2019-02-26T18:34:47.028Z,93.80
2019-02-26T18:39:54.712Z,86.33
2019-02-26T18:45:01.286Z,97.07
2019-02-26T18:50:10.201Z,94.03
2019-02-26T18:55:19.266Z,97.00
2019-02-26T19:00:28.343Z,97.23
2019-02-26T19:05:33.975Z,95.40
2019-02-26T19:10:39.831Z,89.70
2019-02-26T19:15:47.549Z,91.83
2019-02-26T19:20:52.763Z,99.23
2019-02-26T19:25:58.348Z,93.83
2019-02-26T19:31:04.195Z,89.10
2019-02-26T19:36:13.065Z,91.97
2019-02-26T19:41:18.191Z,87.23
2019-02-26T19:46:24.122Z,90.73
2019-02-26T19:51:30.167Z,90.20
2019-02-26T19:56:36.164Z,96.77
2019-02-26T20:01:43.350Z,94.80
2019-02-26T20:06:49.620Z,92.03
2019-02-26T20:11:56.838Z,86.87
2019-02-26T20:17:13.675Z,91.37
2019-02-26T20:22:11.643Z,92.50
2019-02-26T20:27:21.671Z,90.40
2019-02-26T20:32:28.795Z,88.70
2019-02-26T20:37:37.130Z,91.97
2019-02-26T20:42:43.079Z,91.70
2019-02-26T20:47:50.357Z,87.27
2019-02-26T20:52:57.290Z,87.07
2019-02-26T20:58:02.939Z,88.93
2019-02-26T21:03:08.768Z,90.97
2019-02-26T21:08:15.140Z,92.43
2019-02-26T21:13:21.052Z,91.47
2019-02-26T21:18:30.317Z,89.47
2019-02-26T21:23:34.000Z,93.90
2019-02-26T21:28:41.422Z,92.13
2019-02-26T21:33:47.153Z,89.77
2019-02-26T21:38:53.529Z,90.77
2019-02-26T21:43:59.680Z,88.47
2019-02-26T21:49:07.541Z,87.83
2019-02-26T21:54:12.532Z,86.97
2019-02-26T21:59:18.128Z,91.50
2019-02-26T22:04:25.060Z,86.60
2019-02-26T22:09:30.667Z,94.93
2019-02-26T22:14:37.446Z,96.60
2019-02-26T22:19:44.308Z,89.97
2019-02-26T22:24:50.225Z,84.40
2019-02-26T22:29:55.798Z,89.50
2019-02-26T22:35:03.288Z,101.23
2019-02-26T22:40:11.611Z,95.13
2019-02-26T22:45:17.656Z,93.07
2019-02-26T22:50:24.863Z,97.30
2019-02-26T22:55:32.131Z,99.60
2019-02-26T23:00:54.350Z,93.07
2019-02-26T23:06:03.735Z,94.27
2019-02-26T23:11:12.043Z,99.07
2019-02-26T23:16:19.117Z,97.73
2019-02-26T23:21:25.361Z,102.07
2019-02-26T23:26:32.451Z,99.23
2019-02-26T23:31:38.542Z,96.30
2019-02-26T23:36:44.627Z,98.70
2019-02-26T23:41:50.736Z,98.93
2019-02-26T23:46:56.610Z,92.87
2019-02-26T23:52:03.503Z,97.53
2019-02-26T23:57:09.511Z,101.23
